Time;durP1;ratioP1;P1;durP2;ratioP2;P2;SDS_P1;SDS_P2;PMS_P1;PMS_P2;Temp;Humidity;BMP_temperature;BMP_pressure;BME280_temperature;BME280_humidity;BME280_pressure;Samples;Min_cycle;Max_cycle;Signal;HPM_P1;HPM_P2
2021/12/24 00:01:13;;;;;;;;;;;7.80;93.20;;;;;;5074420;28;19909;-83
2021/12/24 00:03:39;;;;;;;;;;;7.80;93.30;;;;;;5068649;28;19920;-83
2021/12/24 00:06:05;;;;;;;;;;;7.90;93.20;;;;;;5078546;28;19919;-83
2021/12/24 00:08:31;;;;;;;;;;;7.80;93.30;;;;;;5076739;28;20338;-83
2021/12/24 00:11:01;;;;;;;;;;;7.90;93.30;;;;;;5074124;28;19983;-83
2021/12/24 00:13:27;;;;;;;;;;;7.90;93.30;;;;;;5082343;28;19927;-83
2021/12/24 00:16:18;;;;;;;;;;;7.90;93.40;;;;;;5089400;28;19932;-83
2021/12/24 00:18:49;;;;;;;;;;;8.00;93.40;;;;;;5078287;28;20027;-84
2021/12/24 00:37:19;;;;;;;;;;;8.10;93.20;;;;;;5074928;28;20005;-85
2021/12/24 00:40:31;;;;;;;;;;;8.10;93.20;;;;;;5073323;28;19919;-84
2021/12/24 00:42:31;;;;;;;;;;;8.10;93.30;;;;;;5063139;28;19912;-84
2021/12/24 00:44:57;;;;;;;;;;;8.20;93.20;;;;;;5070657;28;19919;-84
2021/12/24 00:47:22;;;;;;;;;;;8.20;93.10;;;;;;5070299;28;19952;-84
2021/12/24 00:49:48;;;;;;;;;;;8.10;93.10;;;;;;5070518;28;19999;-84
2021/12/24 00:52:45;;;;;;;;;;;8.10;93.20;;;;;;5070826;28;19909;-84
2021/12/24 00:55:09;;;;;;;;;;;8.20;93.20;;;;;;5073602;28;19919;-84
2021/12/24 00:57:36;;;;;;;;;;;8.10;93.10;;;;;;5054817;28;19944;-84
2021/12/24 01:00:10;;;;;;;;;;;8.10;93.20;;;;;;5070408;28;19964;-84
2021/12/24 01:02:36;;;;;;;;;;;8.20;93.20;;;;;;5083857;28;19920;-84
2021/12/24 01:05:02;;;;;;;;;;;8.20;93.20;;;;;;5071291;28;20263;-84
2021/12/24 01:07:27;;;;;;;;;;;8.10;93.30;;;;;;5072762;28;20007;-84
2021/12/24 01:09:52;;;;;;;;;;;8.10;93.30;;;;;;5072055;28;19985;-84
2021/12/24 01:12:18;;;;;;;;;;;8.20;93.30;;;;;;5073176;28;20062;-84
2021/12/24 01:14:47;;;;;;;;;;;8.30;93.40;;;;;;5074969;28;19912;-84
2021/12/24 01:17:35;;;;;;;;;;;8.30;93.40;;;;;;5072516;28;20370;-84
2021/12/24 01:20:10;;;;;;;;;;;8.30;93.20;;;;;;5070970;28;19921;-84
2021/12/24 01:25:34;;;;;;;;;;;8.40;93.20;;;;;;5073950;28;19919;-84
2021/12/24 01:38:34;;;;;;;;;;;8.50;92.90;;;;;;5074477;28;20386;-84
2021/12/24 01:43:26;;;;;;;;;;;8.50;92.80;;;;;;5074814;28;19935;-83
2021/12/24 01:45:55;;;;;;;;;;;8.50;92.90;;;;;;5071851;28;19920;-84
2021/12/24 01:48:21;;;;;;;;;;;8.50;92.90;;;;;;5073044;28;21099;-84
2021/12/24 01:50:47;;;;;;;;;;;8.60;92.90;;;;;;5072633;28;19917;-84
2021/12/24 01:53:13;;;;;;;;;;;8.60;92.70;;;;;;5069230;28;19931;-84
2021/12/24 01:55:39;;;;;;;;;;;8.50;92.60;;;;;;5071994;28;19927;-84
2021/12/24 01:58:05;;;;;;;;;;;8.50;92.60;;;;;;5073126;28;19913;-85
2021/12/24 02:00:32;;;;;;;;;;;8.50;92.70;;;;;;5071947;28;20393;-85
2021/12/24 02:02:58;;;;;;;;;;;8.50;92.80;;;;;;5072597;28;20375;-84
2021/12/24 02:05:24;;;;;;;;;;;8.60;92.80;;;;;;5072693;28;19969;-84
2021/12/24 02:07:50;;;;;;;;;;;8.60;92.60;;;;;;5073845;28;20472;-84
2021/12/24 02:10:16;;;;;;;;;;;8.60;92.70;;;;;;5073075;28;19912;-84
2021/12/24 02:12:55;;;;;;;;;;;8.60;92.70;;;;;;5076569;28;19919;-85
2021/12/24 02:28:41;;;;;;;;;;;8.70;92.60;;;;;;5074306;28;19923;-84
2021/12/24 02:31:07;;;;;;;;;;;8.60;92.50;;;;;;5071310;28;19924;-84
2021/12/24 02:33:33;;;;;;;;;;;8.70;92.60;;;;;;5073464;28;19959;-84
2021/12/24 02:35:58;;;;;;;;;;;8.70;92.60;;;;;;5072549;28;19916;-85
2021/12/24 02:38:24;;;;;;;;;;;8.80;92.60;;;;;;5074369;28;19913;-84
2021/12/24 02:40:50;;;;;;;;;;;8.80;92.50;;;;;;5057862;28;20303;-84
2021/12/24 02:43:21;;;;;;;;;;;8.80;92.60;;;;;;5066368;28;20003;-84
2021/12/24 02:45:48;;;;;;;;;;;8.80;92.70;;;;;;5071133;28;20290;-84
2021/12/24 02:56:18;;;;;;;;;;;8.80;92.70;;;;;;5070237;28;19918;-84
2021/12/24 02:58:45;;;;;;;;;;;8.80;92.70;;;;;;5065906;28;20293;-84
2021/12/24 03:01:12;;;;;;;;;;;8.80;92.60;;;;;;5069861;28;19913;-84
2021/12/24 03:03:37;;;;;;;;;;;8.80;92.70;;;;;;5062489;28;19916;-85
2021/12/24 03:06:03;;;;;;;;;;;8.90;92.60;;;;;;5069962;28;19965;-85
2021/12/24 03:08:29;;;;;;;;;;;8.90;92.60;;;;;;5068484;28;20022;-84
2021/12/24 03:10:55;;;;;;;;;;;8.90;92.60;;;;;;5069203;28;20452;-85
2021/12/24 03:13:21;;;;;;;;;;;8.80;92.70;;;;;;5070007;28;20062;-84
2021/12/24 03:15:50;;;;;;;;;;;9.00;92.70;;;;;;5069653;28;20023;-84
2021/12/24 03:18:22;;;;;;;;;;;8.90;92.50;;;;;;5069179;28;19958;-84
2021/12/24 03:20:48;;;;;;;;;;;8.80;92.60;;;;;;5069443;28;19913;-84
2021/12/24 03:23:33;;;;;;;;;;;8.90;92.60;;;;;;5071720;28;19919;-84
2021/12/24 03:25:59;;;;;;;;;;;8.80;92.70;;;;;;5074506;28;19992;-84
2021/12/24 03:28:24;;;;;;;;;;;8.80;92.80;;;;;;5074215;28;19982;-83
2021/12/24 03:30:49;;;;;;;;;;;8.70;92.70;;;;;;4690606;22;19964;-85
2021/12/24 03:33:15;;;;;;;;;;;8.80;92.80;;;;;;5066439;28;19912;-85
2021/12/24 03:35:40;;;;;;;;;;;8.70;92.90;;;;;;5063638;28;19949;-84
2021/12/24 03:38:06;;;;;;;;;;;8.70;92.90;;;;;;5035775;28;19921;-84
2021/12/24 03:40:31;;;;;;;;;;;8.70;93.00;;;;;;5043116;28;19912;-84
2021/12/24 03:42:57;;;;;;;;;;;8.70;93.10;;;;;;5055967;28;19924;-85
2021/12/24 03:45:31;;;;;;;;;;;8.70;93.10;;;;;;5038111;28;19913;-85
2021/12/24 03:47:58;;;;;;;;;;;8.70;93.10;;;;;;5047964;28;19927;-84
2021/12/24 03:50:27;;;;;;;;;;;8.80;93.10;;;;;;5033167;28;19963;-85
2021/12/24 03:53:06;;;;;;;;;;;8.70;92.90;;;;;;5041217;28;19985;-84
2021/12/24 03:55:31;;;;;;;;;;;8.80;93.10;;;;;;5030233;28;19920;-85
2021/12/24 03:57:57;;;;;;;;;;;8.70;93.10;;;;;;5033608;28;19913;-84
2021/12/24 04:00:24;;;;;;;;;;;8.70;93.10;;;;;;5029553;28;19913;-85
2021/12/24 04:02:50;;;;;;;;;;;8.70;93.10;;;;;;5052267;28;19919;-85
2021/12/24 04:05:15;;;;;;;;;;;8.70;93.20;;;;;;5029542;28;19913;-83
2021/12/24 04:07:41;;;;;;;;;;;8.70;93.20;;;;;;5046848;28;20007;-84
2021/12/24 04:10:35;;;;;;;;;;;8.80;93.30;;;;;;5044691;28;19952;-84
2021/12/24 04:13:00;;;;;;;;;;;8.80;93.30;;;;;;5044436;28;19977;-84
2021/12/24 04:15:26;;;;;;;;;;;8.80;93.20;;;;;;5052925;28;19913;-84
2021/12/24 04:17:51;;;;;;;;;;;8.90;93.20;;;;;;5052732;28;19920;-84
2021/12/24 04:25:45;;;;;;;;;;;9.00;93.00;;;;;;5056186;28;19934;-84
2021/12/24 04:28:11;;;;;;;;;;;8.90;93.00;;;;;;5034522;28;19928;-85
2021/12/24 04:30:43;;;;;;;;;;;8.90;92.90;;;;;;5031453;28;20913;-85
2021/12/24 04:33:20;;;;;;;;;;;9.00;92.90;;;;;;5033989;28;19913;-84
2021/12/24 05:03:07;;;;;;;;;;;9.00;92.60;;;;;;5047947;28;19933;-84
2021/12/24 05:05:49;;;;;;;;;;;9.00;92.50;;;;;;5047937;28;19920;-84
2021/12/24 05:08:29;;;;;;;;;;;9.00;92.60;;;;;;5038633;28;20008;-84
2021/12/24 05:10:54;;;;;;;;;;;9.10;92.40;;;;;;5053007;28;20390;-85
2021/12/24 05:13:21;;;;;;;;;;;9.10;92.30;;;;;;5029382;28;19913;-84
2021/12/24 05:15:50;;;;;;;;;;;9.10;92.30;;;;;;5050359;28;19919;-85
2021/12/24 05:19:02;;;;;;;;;;;9.10;92.40;;;;;;5048485;28;20006;-85
2021/12/24 05:23:45;;;;;;;;;;;9.20;92.00;;;;;;5052459;28;19924;-84
2021/12/24 05:26:13;;;;;;;;;;;9.20;91.90;;;;;;5037020;28;19920;-85
2021/12/24 05:28:38;;;;;;;;;;;9.20;92.10;;;;;;5037005;28;19921;-85
2021/12/24 05:31:04;;;;;;;;;;;9.20;92.20;;;;;;5034932;28;19927;-86
2021/12/24 05:33:30;;;;;;;;;;;9.20;92.10;;;;;;5033974;28;19966;-85
2021/12/24 05:35:55;;;;;;;;;;;9.10;92.20;;;;;;5021104;28;20368;-84
2021/12/24 05:38:21;;;;;;;;;;;9.10;92.30;;;;;;5054832;28;19923;-84
2021/12/24 05:40:47;;;;;;;;;;;9.10;92.30;;;;;;5034782;28;19913;-85
2021/12/24 05:43:12;;;;;;;;;;;9.10;92.20;;;;;;5038260;28;19935;-85
2021/12/24 05:45:38;;;;;;;;;;;9.10;92.20;;;;;;5052229;28;20287;-85
2021/12/24 05:48:04;;;;;;;;;;;9.10;92.30;;;;;;5046001;28;19929;-85
2021/12/24 05:50:30;;;;;;;;;;;9.10;92.30;;;;;;5022200;28;19919;-85
2021/12/24 05:52:55;;;;;;;;;;;9.00;92.30;;;;;;5026644;28;19913;-85
2021/12/24 05:55:21;;;;;;;;;;;9.00;92.50;;;;;;5036045;28;19920;-85
2021/12/24 05:57:46;;;;;;;;;;;9.00;92.50;;;;;;5027008;28;19917;-85
2021/12/24 06:00:12;;;;;;;;;;;9.10;92.40;;;;;;5048907;28;19913;-85
2021/12/24 06:02:38;;;;;;;;;;;9.00;92.30;;;;;;5053408;28;19972;-85
2021/12/24 06:05:03;;;;;;;;;;;9.00;92.40;;;;;;5046857;28;19920;-85
2021/12/24 06:07:29;;;;;;;;;;;9.10;92.20;;;;;;5035133;28;19916;-84
2021/12/24 06:09:54;;;;;;;;;;;9.10;92.10;;;;;;5053286;28;19924;-86
2021/12/24 06:12:20;;;;;;;;;;;9.10;92.20;;;;;;5033039;28;19913;-85
2021/12/24 06:14:52;;;;;;;;;;;9.10;92.20;;;;;;5023540;28;19913;-85
2021/12/24 06:17:18;;;;;;;;;;;9.10;92.20;;;;;;5028659;28;19916;-85
2021/12/24 06:19:43;;;;;;;;;;;9.10;92.30;;;;;;5045274;28;20414;-85
2021/12/24 06:22:09;;;;;;;;;;;9.00;92.30;;;;;;5026186;28;19966;-85
2021/12/24 06:24:34;;;;;;;;;;;9.10;92.10;;;;;;5053152;28;19917;-85
2021/12/24 06:27:00;;;;;;;;;;;9.10;92.10;;;;;;5043867;28;20369;-85
2021/12/24 06:29:25;;;;;;;;;;;9.00;92.20;;;;;;5022995;28;19920;-85
2021/12/24 06:31:51;;;;;;;;;;;9.10;92.20;;;;;;5041961;28;19917;-85
2021/12/24 06:34:16;;;;;;;;;;;9.10;92.20;;;;;;5044405;28;19917;-82
2021/12/24 06:36:44;;;;;;;;;;;9.00;92.20;;;;;;5039489;28;19981;-83
2021/12/24 06:39:10;;;;;;;;;;;9.00;92.20;;;;;;5034565;28;20295;-84
2021/12/24 06:41:35;;;;;;;;;;;9.10;92.30;;;;;;5026382;28;19913;-83
2021/12/24 06:44:03;;;;;;;;;;;9.10;92.10;;;;;;5048501;28;19932;-83
2021/12/24 06:46:29;;;;;;;;;;;9.00;92.20;;;;;;5052923;28;19920;-82
2021/12/24 06:48:56;;;;;;;;;;;9.00;92.10;;;;;;5037896;28;19913;-81
2021/12/24 06:51:25;;;;;;;;;;;9.00;92.10;;;;;;5033253;28;19975;-83
2021/12/24 06:53:51;;;;;;;;;;;9.00;92.10;;;;;;5028650;28;19916;-83
2021/12/24 06:56:17;;;;;;;;;;;9.00;92.20;;;;;;5031085;28;19988;-84
2021/12/24 06:58:42;;;;;;;;;;;9.00;92.20;;;;;;5026345;28;19920;-82
2021/12/24 07:01:08;;;;;;;;;;;9.00;92.10;;;;;;5035923;28;20252;-82
2021/12/24 07:03:33;;;;;;;;;;;9.00;92.10;;;;;;5050364;28;19932;-84
2021/12/24 07:05:59;;;;;;;;;;;9.00;91.90;;;;;;5041490;28;20291;-83
2021/12/24 07:08:25;;;;;;;;;;;9.00;91.90;;;;;;5048350;28;19920;-83
2021/12/24 07:10:51;;;;;;;;;;;9.00;91.90;;;;;;5042890;28;19913;-83
2021/12/24 07:13:16;;;;;;;;;;;9.00;91.90;;;;;;5055603;28;19913;-84
2021/12/24 07:15:42;;;;;;;;;;;9.00;92.00;;;;;;5047454;28;19943;-83
2021/12/24 07:18:07;;;;;;;;;;;9.00;92.00;;;;;;5047558;28;19912;-86
2021/12/24 07:20:33;;;;;;;;;;;9.00;91.90;;;;;;5040793;28;20399;-83
2021/12/24 07:22:58;;;;;;;;;;;9.00;91.80;;;;;;5051631;28;19913;-84
2021/12/24 07:25:23;;;;;;;;;;;9.00;92.00;;;;;;5041741;28;19974;-88
2021/12/24 07:27:49;;;;;;;;;;;9.00;92.10;;;;;;5028398;28;19917;-83
2021/12/24 07:30:16;;;;;;;;;;;9.10;91.90;;;;;;5039630;28;19913;-82
2021/12/24 07:32:42;;;;;;;;;;;9.00;91.70;;;;;;5054089;28;19917;-86
2021/12/24 07:35:08;;;;;;;;;;;9.00;92.00;;;;;;5034338;28;19958;-84
2021/12/24 07:37:33;;;;;;;;;;;9.00;92.00;;;;;;5037574;28;19986;-85
2021/12/24 07:40:05;;;;;;;;;;;9.00;91.90;;;;;;5038514;28;20478;-85
2021/12/24 07:42:31;;;;;;;;;;;9.00;91.80;;;;;;5033069;28;19959;-85
2021/12/24 07:44:56;;;;;;;;;;;9.00;91.70;;;;;;5048391;28;19913;-84
2021/12/24 07:47:31;;;;;;;;;;;9.00;91.60;;;;;;5047383;28;19917;-85
2021/12/24 07:50:03;;;;;;;;;;;9.00;91.70;;;;;;5045949;28;20020;-85
2021/12/24 07:52:29;;;;;;;;;;;9.00;91.70;;;;;;5040344;28;19912;-83
2021/12/24 07:54:55;;;;;;;;;;;9.00;91.60;;;;;;5035865;28;19913;-84
2021/12/24 07:57:21;;;;;;;;;;;9.00;91.70;;;;;;5047026;28;20031;-85
2021/12/24 07:59:47;;;;;;;;;;;9.00;91.70;;;;;;5049291;28;20153;-84
2021/12/24 08:02:15;;;;;;;;;;;9.00;91.70;;;;;;5024442;28;19913;-84
2021/12/24 08:04:41;;;;;;;;;;;9.10;91.50;;;;;;5027381;28;19940;-84
2021/12/24 08:07:07;;;;;;;;;;;9.10;91.20;;;;;;5024135;28;20308;-85
2021/12/24 08:09:33;;;;;;;;;;;9.10;91.20;;;;;;5027641;28;19914;-84
2021/12/24 08:11:58;;;;;;;;;;;9.10;91.20;;;;;;5027145;28;19912;-84
2021/12/24 08:14:24;;;;;;;;;;;9.10;91.10;;;;;;5038399;28;19913;-85
2021/12/24 08:16:49;;;;;;;;;;;9.10;91.00;;;;;;5029502;28;19913;-84
2021/12/24 08:19:17;;;;;;;;;;;9.10;91.00;;;;;;5028298;28;20434;-83
2021/12/24 08:21:43;;;;;;;;;;;9.10;91.00;;;;;;5037777;28;19919;-81
2021/12/24 08:24:08;;;;;;;;;;;9.10;90.80;;;;;;5025766;28;19913;-82
2021/12/24 08:26:34;;;;;;;;;;;9.10;91.10;;;;;;5040698;28;19927;-83
2021/12/24 08:28:59;;;;;;;;;;;9.10;90.90;;;;;;5045320;28;19995;-83
2021/12/24 08:31:25;;;;;;;;;;;9.10;90.90;;;;;;5061454;28;19943;-84
2021/12/24 08:33:50;;;;;;;;;;;9.10;91.00;;;;;;5057514;28;19912;-82
2021/12/24 08:36:16;;;;;;;;;;;9.10;91.00;;;;;;5041618;28;19913;-87
2021/12/24 08:38:41;;;;;;;;;;;9.10;91.00;;;;;;5056688;28;19917;-85
2021/12/24 08:41:07;;;;;;;;;;;9.10;91.00;;;;;;5067119;28;19968;-83
2021/12/24 08:43:33;;;;;;;;;;;9.10;90.90;;;;;;5034488;28;19935;-82
2021/12/24 08:45:59;;;;;;;;;;;9.10;90.80;;;;;;5025618;28;19913;-83
2021/12/24 08:48:25;;;;;;;;;;;9.10;90.60;;;;;;5053087;28;19990;-83
2021/12/24 08:50:50;;;;;;;;;;;9.10;90.50;;;;;;5051650;28;19929;-84
2021/12/24 08:53:16;;;;;;;;;;;9.10;90.50;;;;;;5033333;28;19924;-83
2021/12/24 08:55:41;;;;;;;;;;;9.10;90.60;;;;;;5036146;28;20444;-84
2021/12/24 08:58:07;;;;;;;;;;;9.10;90.60;;;;;;5037367;28;19959;-84
2021/12/24 09:00:33;;;;;;;;;;;9.10;90.30;;;;;;5041949;28;20263;-85
2021/12/24 09:02:58;;;;;;;;;;;9.20;90.30;;;;;;5026442;28;20055;-83
2021/12/24 09:05:24;;;;;;;;;;;9.20;89.90;;;;;;5020734;28;20406;-84
2021/12/24 09:07:49;;;;;;;;;;;9.30;90.00;;;;;;5027372;28;19928;-81
2021/12/24 09:10:15;;;;;;;;;;;9.20;90.20;;;;;;5037425;28;19967;-84
2021/12/24 09:12:43;;;;;;;;;;;9.30;89.70;;;;;;5030062;28;19941;-83
2021/12/24 09:15:09;;;;;;;;;;;9.10;90.00;;;;;;5045408;28;19927;-82
2021/12/24 09:17:35;;;;;;;;;;;9.20;90.20;;;;;;5032239;28;19913;-83
2021/12/24 09:20:01;;;;;;;;;;;9.20;90.20;;;;;;5034046;28;19917;-82
2021/12/24 09:22:31;;;;;;;;;;;9.20;90.10;;;;;;5030469;28;19913;-82
2021/12/24 09:24:57;;;;;;;;;;;9.20;90.30;;;;;;5023078;28;19913;-82
2021/12/24 09:27:23;;;;;;;;;;;9.20;90.40;;;;;;5031873;28;19943;-83
2021/12/24 09:29:49;;;;;;;;;;;9.30;90.10;;;;;;5030362;28;20355;-82
2021/12/24 09:32:14;;;;;;;;;;;9.30;90.00;;;;;;5040354;28;19920;-84
2021/12/24 09:34:40;;;;;;;;;;;9.30;90.10;;;;;;5027862;28;20399;-84
2021/12/24 09:37:05;;;;;;;;;;;9.30;89.80;;;;;;5027615;28;20305;-84
2021/12/24 09:41:59;;;;;;;;;;;9.40;89.30;;;;;;5069294;28;19936;-81
2021/12/24 09:44:25;;;;;;;;;;;9.40;89.70;;;;;;5045285;28;20333;-80
2021/12/24 09:46:51;;;;;;;;;;;9.40;89.60;;;;;;5055841;28;19928;-80
2021/12/24 09:49:16;;;;;;;;;;;9.30;89.40;;;;;;5069016;28;19912;-81
2021/12/24 09:51:43;;;;;;;;;;;9.40;89.50;;;;;;5070027;28;19913;-80
2021/12/24 09:54:13;;;;;;;;;;;9.30;89.20;;;;;;5059246;28;19912;-80
2021/12/24 09:56:39;;;;;;;;;;;9.30;89.60;;;;;;5058870;28;19995;-79
2021/12/24 09:59:04;;;;;;;;;;;9.30;89.80;;;;;;5057691;28;19951;-80
2021/12/24 10:01:39;;;;;;;;;;;9.30;89.80;;;;;;5075469;28;19940;-79
2021/12/24 10:04:23;;;;;;;;;;;9.30;89.60;;;;;;5077584;28;19912;-80
2021/12/24 10:06:52;;;;;;;;;;;9.30;89.40;;;;;;5058079;28;19927;-81
2021/12/24 10:09:20;;;;;;;;;;;9.40;89.60;;;;;;5059808;28;22755;-81
2021/12/24 10:11:49;;;;;;;;;;;9.40;89.50;;;;;;5058996;28;20392;-81
2021/12/24 10:14:16;;;;;;;;;;;9.40;89.40;;;;;;5077995;28;20341;-83
2021/12/24 10:16:45;;;;;;;;;;;9.40;89.10;;;;;;5060422;28;20406;-81
2021/12/24 10:19:11;;;;;;;;;;;9.40;89.30;;;;;;5060432;28;19988;-84
2021/12/24 10:21:37;;;;;;;;;;;9.30;89.40;;;;;;5075932;28;20420;-84
2021/12/24 10:24:08;;;;;;;;;;;9.30;89.30;;;;;;5059675;28;20431;-80
2021/12/24 10:26:51;;;;;;;;;;;9.30;89.20;;;;;;5068582;28;20282;-81
2021/12/24 10:29:18;;;;;;;;;;;9.30;89.30;;;;;;5074879;28;19913;-81
2021/12/24 10:31:52;;;;;;;;;;;9.30;89.20;;;;;;5056285;28;19939;-88
2021/12/24 10:34:22;;;;;;;;;;;9.40;89.10;;;;;;5069078;28;19900;-87
2021/12/24 10:36:54;;;;;;;;;;;9.40;89.10;;;;;;5057569;28;19912;-85
2021/12/24 10:39:20;;;;;;;;;;;9.50;89.20;;;;;;5073464;28;19900;-80
2021/12/24 10:41:46;;;;;;;;;;;9.40;89.00;;;;;;5071811;28;19916;-82
2021/12/24 10:44:16;;;;;;;;;;;9.40;88.90;;;;;;5075333;28;19935;-82
2021/12/24 10:46:55;;;;;;;;;;;9.40;88.80;;;;;;5072535;28;19917;-82
2021/12/24 10:49:34;;;;;;;;;;;9.30;89.30;;;;;;5071182;28;19909;-82
2021/12/24 10:52:13;;;;;;;;;;;9.30;89.40;;;;;;5057150;28;19916;-83
2021/12/24 10:54:58;;;;;;;;;;;9.30;89.60;;;;;;5054860;28;19913;-82
2021/12/24 10:57:25;;;;;;;;;;;9.30;89.60;;;;;;5078357;28;19916;-80
2021/12/24 10:59:53;;;;;;;;;;;9.30;89.70;;;;;;5064981;28;19920;-82
2021/12/24 11:02:19;;;;;;;;;;;9.20;89.50;;;;;;5074179;28;19999;-82
2021/12/24 11:04:44;;;;;;;;;;;9.10;89.70;;;;;;5072814;28;19958;-83
2021/12/24 11:07:29;;;;;;;;;;;9.10;89.70;;;;;;5070790;28;19977;-83
2021/12/24 11:10:18;;;;;;;;;;;9.10;89.80;;;;;;5073069;28;19970;-83
2021/12/24 11:12:44;;;;;;;;;;;9.30;89.60;;;;;;5062946;28;20010;-81
2021/12/24 11:15:23;;;;;;;;;;;9.30;89.60;;;;;;5057589;28;19916;-83
2021/12/24 11:17:50;;;;;;;;;;;9.50;89.60;;;;;;5069938;28;19901;-83
2021/12/24 11:20:15;;;;;;;;;;;9.50;89.20;;;;;;5091720;28;19931;-84
2021/12/24 11:22:55;;;;;;;;;;;9.50;89.10;;;;;;5077906;28;19912;-83
2021/12/24 11:25:22;;;;;;;;;;;9.60;89.20;;;;;;5077648;28;19939;-84
2021/12/24 11:27:47;;;;;;;;;;;9.60;89.00;;;;;;5072846;28;19920;-85
2021/12/24 11:30:14;;;;;;;;;;;9.60;88.70;;;;;;5076509;28;19967;-86
2021/12/24 11:32:40;;;;;;;;;;;9.50;88.70;;;;;;5074717;28;19969;-85
2021/12/24 11:35:05;;;;;;;;;;;9.50;88.80;;;;;;5074277;28;20469;-84
2021/12/24 11:37:31;;;;;;;;;;;9.50;88.80;;;;;;5056224;28;20062;-83
2021/12/24 11:39:57;;;;;;;;;;;9.40;88.90;;;;;;5074153;28;19912;-84
2021/12/24 11:42:24;;;;;;;;;;;9.50;88.90;;;;;;5074565;28;19974;-86
2021/12/24 11:44:50;;;;;;;;;;;9.60;88.70;;;;;;5070251;28;20006;-84
2021/12/24 11:47:15;;;;;;;;;;;9.60;88.40;;;;;;5054337;28;19928;-83
2021/12/24 11:49:41;;;;;;;;;;;9.60;88.10;;;;;;5079209;28;19912;-83
2021/12/24 11:52:06;;;;;;;;;;;9.50;88.50;;;;;;5078062;28;19935;-83
2021/12/24 11:54:32;;;;;;;;;;;9.40;88.60;;;;;;5060635;28;20255;-83
2021/12/24 11:56:58;;;;;;;;;;;9.40;88.90;;;;;;5060527;28;19912;-85
2021/12/24 11:59:39;;;;;;;;;;;9.50;88.90;;;;;;5059720;28;19916;-83
2021/12/24 12:02:06;;;;;;;;;;;9.40;88.80;;;;;;5055872;28;20362;-85
2021/12/24 12:04:32;;;;;;;;;;;9.50;88.80;;;;;;5051430;28;19995;-83
2021/12/24 12:07:17;;;;;;;;;;;9.40;89.00;;;;;;5058701;28;19958;-82
2021/12/24 12:09:43;;;;;;;;;;;9.40;88.70;;;;;;5058298;28;19912;-83
2021/12/24 12:12:10;;;;;;;;;;;9.40;89.40;;;;;;5076746;28;20298;-82
2021/12/24 12:14:37;;;;;;;;;;;9.40;89.10;;;;;;5057891;28;20275;-83
2021/12/24 12:17:06;;;;;;;;;;;9.40;88.90;;;;;;5058422;28;19920;-85
2021/12/24 12:23:08;;;;;;;;;;;9.40;88.80;;;;;;5084395;28;19923;-82
2021/12/24 12:25:09;;;;;;;;;;;9.30;89.00;;;;;;5080085;28;19916;-83
2021/12/24 12:27:55;;;;;;;;;;;9.30;89.00;;;;;;5082265;28;19974;-86
2021/12/24 12:30:23;;;;;;;;;;;9.40;89.10;;;;;;5059777;28;19921;-84
2021/12/24 12:32:50;;;;;;;;;;;9.40;89.10;;;;;;5060729;28;19938;-84
2021/12/24 12:35:16;;;;;;;;;;;9.60;88.90;;;;;;5072017;28;20075;-84
2021/12/24 12:37:41;;;;;;;;;;;9.50;89.00;;;;;;5061057;28;19955;-84
2021/12/24 12:40:13;;;;;;;;;;;9.50;88.90;;;;;;5090537;28;19913;-85
2021/12/24 12:42:56;;;;;;;;;;;9.40;89.00;;;;;;5077887;28;19913;-85
2021/12/24 12:45:42;;;;;;;;;;;9.50;88.70;;;;;;5059124;28;19919;-85
2021/12/24 12:48:09;;;;;;;;;;;9.40;89.00;;;;;;5073907;28;20007;-85
2021/12/24 12:50:36;;;;;;;;;;;9.30;89.10;;;;;;5049503;28;20003;-83
2021/12/24 12:53:20;;;;;;;;;;;9.40;89.10;;;;;;5056701;28;19912;-83
2021/12/24 12:55:46;;;;;;;;;;;9.40;89.60;;;;;;5074594;28;19999;-83
2021/12/24 12:58:22;;;;;;;;;;;9.40;89.30;;;;;;5073279;28;19936;-84
2021/12/24 13:01:06;;;;;;;;;;;9.50;89.30;;;;;;5074074;28;19916;-84
2021/12/24 13:03:32;;;;;;;;;;;9.50;89.40;;;;;;5057590;28;20004;-83
2021/12/24 13:06:05;;;;;;;;;;;9.40;89.70;;;;;;5056244;28;19913;-82
2021/12/24 13:08:32;;;;;;;;;;;9.40;89.60;;;;;;5055581;28;19928;-83
2021/12/24 13:11:05;;;;;;;;;;;9.40;89.60;;;;;;5068443;28;19913;-87
2021/12/24 13:13:32;;;;;;;;;;;9.40;89.40;;;;;;5045344;28;19912;-85
2021/12/24 13:15:58;;;;;;;;;;;9.50;89.50;;;;;;5055075;28;20363;-84
2021/12/24 13:18:33;;;;;;;;;;;9.40;89.70;;;;;;5057123;28;19917;-85
2021/12/24 13:23:36;;;;;;;;;;;9.30;89.70;;;;;;5073138;28;20302;-86
2021/12/24 13:26:09;;;;;;;;;;;9.40;89.90;;;;;;5071438;28;20389;-87
2021/12/24 13:28:35;;;;;;;;;;;9.30;90.00;;;;;;5073545;28;20015;-84
2021/12/24 13:31:12;;;;;;;;;;;9.30;90.10;;;;;;5072284;28;20025;-86
2021/12/24 13:33:37;;;;;;;;;;;9.30;90.30;;;;;;5048191;28;20026;-85
2021/12/24 13:36:10;;;;;;;;;;;9.30;90.40;;;;;;5058499;28;19988;-84
2021/12/24 13:38:36;;;;;;;;;;;9.30;90.60;;;;;;5058990;28;19920;-83
2021/12/24 13:41:03;;;;;;;;;;;9.30;90.40;;;;;;5078545;28;19978;-85
2021/12/24 13:43:31;;;;;;;;;;;9.20;90.70;;;;;;5059166;28;20382;-84
2021/12/24 13:46:04;;;;;;;;;;;9.30;90.60;;;;;;5059490;28;19978;-84
2021/12/24 13:48:41;;;;;;;;;;;9.30;90.60;;;;;;5056822;28;19916;-88
2021/12/24 13:56:41;;;;;;;;;;;9.30;90.60;;;;;;5073838;28;19923;-87
2021/12/24 13:59:07;;;;;;;;;;;9.40;90.40;;;;;;5070821;28;19920;-83
2021/12/24 14:01:33;;;;;;;;;;;9.40;90.30;;;;;;5056793;28;19916;-85
2021/12/24 14:04:00;;;;;;;;;;;9.40;90.10;;;;;;5081276;28;20363;-85
2021/12/24 14:06:35;;;;;;;;;;;9.40;90.10;;;;;;5074544;28;19913;-85
2021/12/24 14:09:07;;;;;;;;;;;9.30;89.70;;;;;;5051154;28;20095;-85
2021/12/24 14:11:36;;;;;;;;;;;9.30;89.90;;;;;;5055547;28;19913;-85
2021/12/24 14:14:06;;;;;;;;;;;9.30;90.00;;;;;;5063987;28;19990;-85
2021/12/24 14:19:08;;;;;;;;;;;9.40;89.60;;;;;;5081832;28;19912;-85
2021/12/24 14:21:45;;;;;;;;;;;9.40;89.80;;;;;;5063465;28;19916;-86
2021/12/24 14:24:13;;;;;;;;;;;9.40;89.20;;;;;;5050083;28;19913;-85
2021/12/24 14:26:51;;;;;;;;;;;9.30;89.60;;;;;;5053270;28;20046;-85
2021/12/24 14:29:25;;;;;;;;;;;9.40;89.70;;;;;;5054748;28;19999;-86
2021/12/24 14:31:53;;;;;;;;;;;9.30;89.30;;;;;;5072534;28;19938;-84
2021/12/24 14:34:37;;;;;;;;;;;9.30;89.60;;;;;;5054626;28;19923;-84
2021/12/24 14:37:23;;;;;;;;;;;9.30;89.50;;;;;;5075005;28;19913;-85
2021/12/24 14:39:55;;;;;;;;;;;9.30;89.20;;;;;;5047507;28;19919;-84
2021/12/24 14:42:20;;;;;;;;;;;9.30;89.20;;;;;;5058257;28;19995;-84
2021/12/24 14:44:47;;;;;;;;;;;9.30;89.20;;;;;;5064173;28;19919;-85
2021/12/24 14:47:16;;;;;;;;;;;9.20;89.30;;;;;;5079175;28;20019;-85
2021/12/24 14:49:42;;;;;;;;;;;9.30;89.20;;;;;;5055227;28;19920;-85
2021/12/24 14:52:19;;;;;;;;;;;9.20;89.10;;;;;;5064211;28;19913;-83
2021/12/24 14:55:04;;;;;;;;;;;9.30;89.20;;;;;;5053157;28;19932;-83
2021/12/24 14:57:31;;;;;;;;;;;9.30;89.20;;;;;;5041282;28;20340;-84
2021/12/24 15:00:04;;;;;;;;;;;9.40;88.90;;;;;;5063471;28;19944;-85
2021/12/24 15:02:30;;;;;;;;;;;9.50;88.30;;;;;;5073187;28;19948;-84
2021/12/24 15:04:55;;;;;;;;;;;9.40;88.70;;;;;;5053543;28;19920;-85
2021/12/24 15:07:30;;;;;;;;;;;9.40;88.70;;;;;;5073810;28;19981;-86
2021/12/24 15:10:12;;;;;;;;;;;9.40;88.20;;;;;;5056860;28;20374;-84
2021/12/24 15:12:50;;;;;;;;;;;9.40;88.40;;;;;;5075737;28;19970;-85
2021/12/24 15:15:16;;;;;;;;;;;9.50;88.20;;;;;;5071863;28;20410;-89
2021/12/24 15:17:43;;;;;;;;;;;9.40;88.20;;;;;;5055634;28;19956;-89
2021/12/24 15:20:09;;;;;;;;;;;9.50;88.00;;;;;;5051384;28;20302;-89
2021/12/24 15:22:34;;;;;;;;;;;9.40;88.30;;;;;;5047363;28;19916;-83
2021/12/24 15:25:00;;;;;;;;;;;9.50;88.20;;;;;;5054371;28;20236;-84
2021/12/24 15:27:32;;;;;;;;;;;9.50;87.80;;;;;;5065273;28;19917;-85
2021/12/24 15:30:03;;;;;;;;;;;9.50;87.90;;;;;;5064091;28;20006;-84
2021/12/24 15:32:28;;;;;;;;;;;9.50;87.80;;;;;;5090321;28;19912;-82
2021/12/24 15:34:54;;;;;;;;;;;9.40;87.90;;;;;;5073791;28;20027;-84
2021/12/24 15:37:20;;;;;;;;;;;9.40;88.30;;;;;;5061244;28;20408;-84
2021/12/24 15:39:45;;;;;;;;;;;9.40;87.90;;;;;;5064504;28;20359;-82
2021/12/24 15:42:11;;;;;;;;;;;9.40;88.00;;;;;;5073897;28;19924;-85
2021/12/24 15:44:42;;;;;;;;;;;9.50;88.10;;;;;;5062915;28;20057;-85
2021/12/24 15:47:08;;;;;;;;;;;9.50;88.00;;;;;;5057798;28;20644;-85
2021/12/24 15:49:33;;;;;;;;;;;9.60;87.90;;;;;;5051723;28;19912;-89
2021/12/24 15:51:59;;;;;;;;;;;9.60;87.90;;;;;;5077940;28;19923;-86
2021/12/24 15:54:24;;;;;;;;;;;9.60;87.90;;;;;;5089593;28;19939;-81
2021/12/24 15:56:50;;;;;;;;;;;9.60;88.20;;;;;;5088266;28;19912;-85
2021/12/24 15:59:15;;;;;;;;;;;9.60;88.20;;;;;;5068816;28;19897;-84
2021/12/24 16:01:40;;;;;;;;;;;9.60;88.40;;;;;;5070379;28;19927;-85
2021/12/24 16:04:06;;;;;;;;;;;9.60;88.30;;;;;;5061912;28;19920;-84
2021/12/24 16:06:31;;;;;;;;;;;9.60;88.40;;;;;;5060461;28;19909;-85
2021/12/24 16:08:57;;;;;;;;;;;9.60;88.70;;;;;;5078254;28;20010;-85
2021/12/24 16:11:22;;;;;;;;;;;9.50;88.60;;;;;;5066593;28;20374;-85
2021/12/24 16:13:48;;;;;;;;;;;9.50;88.50;;;;;;5075907;28;19915;-84
2021/12/24 16:16:15;;;;;;;;;;;9.60;88.30;;;;;;5042480;28;19932;-85
2021/12/24 16:18:40;;;;;;;;;;;9.60;88.40;;;;;;5057014;28;21372;-85
2021/12/24 16:21:06;;;;;;;;;;;9.50;88.40;;;;;;5052590;28;19921;-84
2021/12/24 16:23:33;;;;;;;;;;;9.50;88.80;;;;;;5058357;28;19916;-85